sensor_id;sensor_type;location;lat;lon;timestamp;pressure;altitude;pressure_sealevel;temperature;humidity
59987;BME280;46181;51.498;5.392;2022-10-16T00:03:57;100919.1;;;17.07;62.29102
59987;BME280;46181;51.498;5.392;2022-10-16T00:08:26;100909.1;;;17.04;62.40234
59987;BME280;46181;51.498;5.392;2022-10-16T00:12:57;100904.5;;;16.98;62.49512
59987;BME280;46181;51.498;5.392;2022-10-16T00:17:26;100908.3;;;16.92;62.57715
59987;BME280;46181;51.498;5.392;2022-10-16T00:21:56;100911.8;;;16.86;62.66113
59987;BME280;46181;51.498;5.392;2022-10-16T00:26:27;100906.5;;;16.8;62.79004
59987;BME280;46181;51.498;5.392;2022-10-16T00:30:56;100910.1;;;16.75;62.90723
59987;BME280;46181;51.498;5.392;2022-10-16T00:35:27;100909.6;;;16.69;63.01367
59987;BME280;46181;51.498;5.392;2022-10-16T00:39:56;100914.3;;;16.7;63.11816
59987;BME280;46181;51.498;5.392;2022-10-16T00:44:48;100913.1;;;16.64;63.38184
59987;BME280;46181;51.498;5.392;2022-10-16T00:48:59;100916.9;;;16.67;63.11328
59987;BME280;46181;51.498;5.392;2022-10-16T00:53:26;100917.1;;;16.64;63.11914
59987;BME280;46181;51.498;5.392;2022-10-16T00:57:57;100916.7;;;16.59;63.21582
59987;BME280;46181;51.498;5.392;2022-10-16T01:02:26;100917.1;;;16.54;63.33496
59987;BME280;46181;51.498;5.392;2022-10-16T01:07:01;100906.2;;;16.47;63.44824
59987;BME280;46181;51.498;5.392;2022-10-16T01:11:31;100907.8;;;16.46;63.50391
59987;BME280;46181;51.498;5.392;2022-10-16T01:16:04;100911.9;;;16.41;63.59961
59987;BME280;46181;51.498;5.392;2022-10-16T01:20:31;100908.6;;;16.38;63.60645
59987;BME280;46181;51.498;5.392;2022-10-16T01:24:58;100919.6;;;16.41;63.63379
59987;BME280;46181;51.498;5.392;2022-10-16T01:29:29;100913.8;;;16.43;63.69531
59987;BME280;46181;51.498;5.392;2022-10-16T01:34:00;100927.6;;;16.5;63.64844
59987;BME280;46181;51.498;5.392;2022-10-16T01:38:30;100914;;;16.56;63.62109
59987;BME280;46181;51.498;5.392;2022-10-16T01:42:59;100924.5;;;16.61;63.68555
59987;BME280;46181;51.498;5.392;2022-10-16T01:47:27;100920.6;;;16.67;63.61621
59987;BME280;46181;51.498;5.392;2022-10-16T01:51:59;100906;;;16.67;63.60449
59987;BME280;46181;51.498;5.392;2022-10-16T01:56:27;100909.6;;;16.7;63.59668
59987;BME280;46181;51.498;5.392;2022-10-16T02:00:57;100915;;;16.74;63.64746
59987;BME280;46181;51.498;5.392;2022-10-16T02:05:30;100915;;;16.73;63.7373
59987;BME280;46181;51.498;5.392;2022-10-16T02:09:57;100921.1;;;16.79;63.68848
59987;BME280;46181;51.498;5.392;2022-10-16T02:14:27;100916.2;;;16.75;63.67188
59987;BME280;46181;51.498;5.392;2022-10-16T02:18:57;100925.2;;;16.71;63.67773
59987;BME280;46181;51.498;5.392;2022-10-16T02:23:34;100918;;;16.59;63.85352
59987;BME280;46181;51.498;5.392;2022-10-16T02:28:02;100920.5;;;16.55;63.83691
59987;BME280;46181;51.498;5.392;2022-10-16T02:32:30;100915.5;;;16.51;63.80762
59987;BME280;46181;51.498;5.392;2022-10-16T02:36:57;100912.6;;;16.43;63.88867
59987;BME280;46181;51.498;5.392;2022-10-16T02:41:27;100926.9;;;16.4;63.94043
59987;BME280;46181;51.498;5.392;2022-10-16T02:45:56;100926.8;;;16.4;63.98633
59987;BME280;46181;51.498;5.392;2022-10-16T02:50:27;100918.5;;;16.36;63.99219
59987;BME280;46181;51.498;5.392;2022-10-16T02:54:57;100917.1;;;16.32;64.06641
59987;BME280;46181;51.498;5.392;2022-10-16T02:59:26;100912.9;;;16.3;64.0625
59987;BME280;46181;51.498;5.392;2022-10-16T03:03:57;100928.1;;;16.28;64.08301
59987;BME280;46181;51.498;5.392;2022-10-16T03:08:27;100929.8;;;16.3;64.05078
59987;BME280;46181;51.498;5.392;2022-10-16T03:12:57;100926.2;;;16.25;64.15723
59987;BME280;46181;51.498;5.392;2022-10-16T03:17:27;100920.7;;;16.27;64.22949
59987;BME280;46181;51.498;5.392;2022-10-16T03:21:56;100938.8;;;16.27;64.22949
59987;BME280;46181;51.498;5.392;2022-10-16T03:26:27;100943.7;;;16.27;64.26367
59987;BME280;46181;51.498;5.392;2022-10-16T03:30:57;100950.6;;;16.29;64.35742
59987;BME280;46181;51.498;5.392;2022-10-16T03:35:27;100956.1;;;16.31;64.36035
59987;BME280;46181;51.498;5.392;2022-10-16T03:39:56;100949.6;;;16.33;64.4082
59987;BME280;46181;51.498;5.392;2022-10-16T03:44:27;100957.5;;;16.34;64.4209
59987;BME280;46181;51.498;5.392;2022-10-16T03:48:56;100968.3;;;16.35;64.44629
59987;BME280;46181;51.498;5.392;2022-10-16T03:53:27;100965.4;;;16.37;64.4375
59987;BME280;46181;51.498;5.392;2022-10-16T03:57:56;100966.1;;;16.4;64.47559
59987;BME280;46181;51.498;5.392;2022-10-16T04:02:27;100968.5;;;16.41;64.54688
59987;BME280;46181;51.498;5.392;2022-10-16T04:06:56;100964.4;;;16.45;64.5293
59987;BME280;46181;51.498;5.392;2022-10-16T04:11:27;100971.6;;;16.45;64.55176
59987;BME280;46181;51.498;5.392;2022-10-16T04:15:57;100975.6;;;16.45;64.63184
59987;BME280;46181;51.498;5.392;2022-10-16T04:20:27;100978;;;16.48;64.69238
59987;BME280;46181;51.498;5.392;2022-10-16T04:24:57;100974.5;;;16.49;64.72656
59987;BME280;46181;51.498;5.392;2022-10-16T04:29:27;100972.8;;;16.51;64.76465
59987;BME280;46181;51.498;5.392;2022-10-16T04:33:57;100973.1;;;16.53;64.75684
59987;BME280;46181;51.498;5.392;2022-10-16T04:38:27;100983.8;;;16.54;64.71191
59987;BME280;46181;51.498;5.392;2022-10-16T04:42:57;100987.6;;;16.52;64.74414
59987;BME280;46181;51.498;5.392;2022-10-16T04:47:27;101000.8;;;16.5;64.78711
59987;BME280;46181;51.498;5.392;2022-10-16T04:51:57;101005;;;16.48;64.84082
59987;BME280;46181;51.498;5.392;2022-10-16T04:56:27;101013.4;;;16.45;64.87012
59987;BME280;46181;51.498;5.392;2022-10-16T05:00:57;101017.7;;;16.42;64.95801
59987;BME280;46181;51.498;5.392;2022-10-16T05:05:27;101024.7;;;16.39;65.04395
59987;BME280;46181;51.498;5.392;2022-10-16T05:09:57;101032.9;;;16.37;65.01855
59987;BME280;46181;51.498;5.392;2022-10-16T05:14:27;101036.6;;;16.32;65.04395
59987;BME280;46181;51.498;5.392;2022-10-16T05:18:57;101034.1;;;16.28;65.0957
59987;BME280;46181;51.498;5.392;2022-10-16T05:23:27;101035.2;;;16.24;65.15723
59987;BME280;46181;51.498;5.392;2022-10-16T05:27:59;101034.1;;;16.16;65.36133
59987;BME280;46181;51.498;5.392;2022-10-16T05:32:27;101042.3;;;16.19;65.34473
59987;BME280;46181;51.498;5.392;2022-10-16T05:36:57;101042.1;;;16.15;65.47461
59987;BME280;46181;51.498;5.392;2022-10-16T05:41:27;101051.5;;;16.17;65.55664
59987;BME280;46181;51.498;5.392;2022-10-16T05:46:02;101067.8;;;16.11;65.58398
59987;BME280;46181;51.498;5.392;2022-10-16T05:50:27;101081.4;;;16.13;65.54004
59987;BME280;46181;51.498;5.392;2022-10-16T05:54:57;101078.9;;;16.12;65.70898
59987;BME280;46181;51.498;5.392;2022-10-16T05:59:27;101087.6;;;16.11;65.74316
59987;BME280;46181;51.498;5.392;2022-10-16T06:03:57;101091.2;;;16.14;65.86133
59987;BME280;46181;51.498;5.392;2022-10-16T06:08:27;101105.3;;;16.13;65.84863
59987;BME280;46181;51.498;5.392;2022-10-16T06:12:57;101109.5;;;16.15;65.91895
59987;BME280;46181;51.498;5.392;2022-10-16T06:17:27;101122.6;;;16.17;66.01172
59987;BME280;46181;51.498;5.392;2022-10-16T06:21:57;101135.2;;;16.19;66.06152
59987;BME280;46181;51.498;5.392;2022-10-16T06:26:28;101145.2;;;16.21;66.14258
59987;BME280;46181;51.498;5.392;2022-10-16T06:31:02;101152.7;;;16.24;66.0791
59987;BME280;46181;51.498;5.392;2022-10-16T06:35:27;101154.7;;;16.23;66.07813
59987;BME280;46181;51.498;5.392;2022-10-16T06:39:57;101158.5;;;16.26;66.08203
59987;BME280;46181;51.498;5.392;2022-10-16T06:44:27;101165;;;16.32;66.13672
59987;BME280;46181;51.498;5.392;2022-10-16T06:48:57;101176.8;;;16.38;66.29297
59987;BME280;46181;51.498;5.392;2022-10-16T06:53:27;101183.7;;;16.51;66.2334
59987;BME280;46181;51.498;5.392;2022-10-16T06:57:57;101194.2;;;16.68;66.27051
59987;BME280;46181;51.498;5.392;2022-10-16T07:02:27;101190.7;;;16.85;66.15918
59987;BME280;46181;51.498;5.392;2022-10-16T07:06:57;101195.8;;;17.05;65.84668
59987;BME280;46181;51.498;5.392;2022-10-16T07:11:28;101206.3;;;17.2;65.89258
59987;BME280;46181;51.498;5.392;2022-10-16T07:15:57;101216.3;;;17.4;65.73926
59987;BME280;46181;51.498;5.392;2022-10-16T07:20:27;101223.1;;;17.61;65.58789
59987;BME280;46181;51.498;5.392;2022-10-16T07:24:57;101225.2;;;17.8;65.2959
59987;BME280;46181;51.498;5.392;2022-10-16T07:29:28;101239.7;;;18;65.0166
59987;BME280;46181;51.498;5.392;2022-10-16T07:33:57;101241.2;;;18.19;64.80566
59987;BME280;46181;51.498;5.392;2022-10-16T07:38:27;101252.8;;;18.45;64.5918
59987;BME280;46181;51.498;5.392;2022-10-16T07:42:57;101258.7;;;18.73;64.13965
59987;BME280;46181;51.498;5.392;2022-10-16T07:47:27;101268.9;;;18.97;63.6582
59987;BME280;46181;51.498;5.392;2022-10-16T07:51:57;101273;;;19.14;63.37305
59987;BME280;46181;51.498;5.392;2022-10-16T07:56:27;101283.9;;;19.28;63.03711
59987;BME280;46181;51.498;5.392;2022-10-16T08:00:57;101282.7;;;19.39;62.67383
59987;BME280;46181;51.498;5.392;2022-10-16T08:05:27;101293.3;;;19.42;62.42773
59987;BME280;46181;51.498;5.392;2022-10-16T08:09:57;101298.9;;;19.45;62.17773
59987;BME280;46181;51.498;5.392;2022-10-16T08:14:27;101309.2;;;19.54;61.87012
59987;BME280;46181;51.498;5.392;2022-10-16T08:18:57;101319;;;19.62;61.70996
59987;BME280;46181;51.498;5.392;2022-10-16T08:23:27;101319.9;;;19.72;61.56152
59987;BME280;46181;51.498;5.392;2022-10-16T08:27:57;101324.1;;;19.82;61.08105
59987;BME280;46181;51.498;5.392;2022-10-16T08:32:27;101329.7;;;19.94;60.98438
59987;BME280;46181;51.498;5.392;2022-10-16T08:36:57;101330.2;;;20.03;60.4668
59987;BME280;46181;51.498;5.392;2022-10-16T08:50:30;101355;;;20.36;60.00488
59987;BME280;46181;51.498;5.392;2022-10-16T08:54:59;101363.3;;;20.5;59.67969
59987;BME280;46181;51.498;5.392;2022-10-16T08:59:27;101361.3;;;20.57;59.23926
59987;BME280;46181;51.498;5.392;2022-10-16T09:08:34;101372.9;;;20.73;58.95996
59987;BME280;46181;51.498;5.392;2022-10-16T09:13:01;101381.7;;;20.83;58.43262
59987;BME280;46181;51.498;5.392;2022-10-16T09:17:37;101390.2;;;20.94;58.40234
59987;BME280;46181;51.498;5.392;2022-10-16T09:21:57;101394;;;21.14;57.89648
59987;BME280;46181;51.498;5.392;2022-10-16T09:26:27;101390.6;;;21.27;57.22168
59987;BME280;46181;51.498;5.392;2022-10-16T09:30:57;101399.5;;;21.33;56.83594
59987;BME280;46181;51.498;5.392;2022-10-16T09:35:31;101399.5;;;21.4;56.39648
59987;BME280;46181;51.498;5.392;2022-10-16T09:39:58;101405.2;;;21.68;55.7959
59987;BME280;46181;51.498;5.392;2022-10-16T09:44:31;101400.1;;;21.83;55.48926
59987;BME280;46181;51.498;5.392;2022-10-16T09:48:58;101398.3;;;22;55.43066
59987;BME280;46181;51.498;5.392;2022-10-16T09:53:35;101399.7;;;22.06;54.60547
59987;BME280;46181;51.498;5.392;2022-10-16T09:58:11;101403.8;;;22.07;55.10449
59987;BME280;46181;51.498;5.392;2022-10-16T10:02:30;101412.9;;;22.46;54.59668
59987;BME280;46181;51.498;5.392;2022-10-16T10:06:57;101412;;;22.62;53.66504
59987;BME280;46181;51.498;5.392;2022-10-16T10:11:43;101409.2;;;22.67;53.5791
59987;BME280;46181;51.498;5.392;2022-10-16T10:15:57;101410.1;;;22.9;53.22363
59987;BME280;46181;51.498;5.392;2022-10-16T10:20:31;101414.8;;;22.96;52.67383
59987;BME280;46181;51.498;5.392;2022-10-16T10:29:40;101419.7;;;22.79;52.35352
59987;BME280;46181;51.498;5.392;2022-10-16T10:34:16;101429.9;;;22.94;52.23242
59987;BME280;46181;51.498;5.392;2022-10-16T10:38:36;101432.4;;;23;51.14844
59987;BME280;46181;51.498;5.392;2022-10-16T10:43:01;101435.6;;;22.79;50.75293
59987;BME280;46181;51.498;5.392;2022-10-16T10:47:35;101438.5;;;22.51;50.66309
59987;BME280;46181;51.498;5.392;2022-10-16T10:52:05;101442.8;;;22.36;50.68066
59987;BME280;46181;51.498;5.392;2022-10-16T10:56:39;101449.2;;;22.26;50.93652
59987;BME280;46181;51.498;5.392;2022-10-16T11:01:03;101445.9;;;22.37;51.14551
59987;BME280;46181;51.498;5.392;2022-10-16T11:05:40;101450;;;22.47;51.0293
59987;BME280;46181;51.498;5.392;2022-10-16T11:09:59;101447;;;22.6;50.02441
59987;BME280;46181;51.498;5.392;2022-10-16T11:14:30;101449.3;;;22.57;49.85742
59987;BME280;46181;51.498;5.392;2022-10-16T11:19:02;101448.3;;;22.53;49.7959
59987;BME280;46181;51.498;5.392;2022-10-16T11:23:32;101449.6;;;22.79;49.47656
59987;BME280;46181;51.498;5.392;2022-10-16T11:28:01;101447.3;;;23.15;48.80762
59987;BME280;46181;51.498;5.392;2022-10-16T11:32:32;101448;;;23.25;48.02832
59987;BME280;46181;51.498;5.392;2022-10-16T11:37:01;101449.6;;;23.26;47.95996
59987;BME280;46181;51.498;5.392;2022-10-16T11:41:32;101449.2;;;23.39;48.36914
59987;BME280;46181;51.498;5.392;2022-10-16T11:45:58;101457;;;23.71;47.98535
59987;BME280;46181;51.498;5.392;2022-10-16T11:50:33;101464.8;;;23.84;46.61426
59987;BME280;46181;51.498;5.392;2022-10-16T11:54:59;101464.4;;;23.77;46.1748
59987;BME280;46181;51.498;5.392;2022-10-16T11:59:32;101467.3;;;23.6;46.12305
59987;BME280;46181;51.498;5.392;2022-10-16T12:04:11;101460;;;23.35;46.36523
59987;BME280;46181;51.498;5.392;2022-10-16T12:08:27;101459.1;;;23.35;46.59766
59987;BME280;46181;51.498;5.392;2022-10-16T12:12:57;101464.6;;;23.56;46.46777
59987;BME280;46181;51.498;5.392;2022-10-16T12:17:43;101468.8;;;23.66;46.25684
59987;BME280;46181;51.498;5.392;2022-10-16T12:21:58;101473.2;;;24.1;45.77832
59987;BME280;46181;51.498;5.392;2022-10-16T12:26:33;101470.4;;;24.49;45.18848
59987;BME280;46181;51.498;5.392;2022-10-16T12:31:02;101469.5;;;24.96;44.41797
59987;BME280;46181;51.498;5.392;2022-10-16T12:35:32;101473.2;;;25.1;43.76563
59987;BME280;46181;51.498;5.392;2022-10-16T12:39:57;101472.7;;;25.05;43.35156
59987;BME280;46181;51.498;5.392;2022-10-16T12:44:36;101466.6;;;24.76;43.11523
59987;BME280;46181;51.498;5.392;2022-10-16T12:49:04;101459.9;;;24.58;43.73828
59987;BME280;46181;51.498;5.392;2022-10-16T12:53:31;101467.2;;;24.31;43.99219
59987;BME280;46181;51.498;5.392;2022-10-16T13:02:59;101455.6;;;24.24;43.05273
59987;BME280;46181;51.498;5.392;2022-10-16T13:07:03;101451.4;;;24.35;42.50293
59987;BME280;46181;51.498;5.392;2022-10-16T13:11:35;101451;;;24.24;42.76172
59987;BME280;46181;51.498;5.392;2022-10-16T13:16:17;101458.2;;;24.01;43.1582
59987;BME280;46181;51.498;5.392;2022-10-16T13:20:46;101463.3;;;24.07;43.31641
59987;BME280;46181;51.498;5.392;2022-10-16T13:25:08;101465.2;;;24.2;43.58594
59987;BME280;46181;51.498;5.392;2022-10-16T13:29:28;101473.5;;;24.43;43.08301
59987;BME280;46181;51.498;5.392;2022-10-16T13:33:59;101487.4;;;24.55;43.15234
59987;BME280;46181;51.498;5.392;2022-10-16T13:38:29;101492.2;;;24.66;42.97559
59987;BME280;46181;51.498;5.392;2022-10-16T13:42:59;101489.8;;;24.85;42.66699
59987;BME280;46181;51.498;5.392;2022-10-16T13:47:29;101491;;;24.93;42.45313
59987;BME280;46181;51.498;5.392;2022-10-16T13:52:15;101485.1;;;24.88;42.40137
59987;BME280;46181;51.498;5.392;2022-10-16T13:56:29;101491;;;24.93;42.66406
59987;BME280;46181;51.498;5.392;2022-10-16T14:01:14;101490;;;24.87;42.73926
59987;BME280;46181;51.498;5.392;2022-10-16T14:05:27;101501.7;;;24.9;42.50879
59987;BME280;46181;51.498;5.392;2022-10-16T14:09:59;101495.7;;;24.89;42.68262
59987;BME280;46181;51.498;5.392;2022-10-16T14:14:31;101497.4;;;24.84;42.7373
59987;BME280;46181;51.498;5.392;2022-10-16T14:19:03;101495.4;;;24.67;43.08203
59987;BME280;46181;51.498;5.392;2022-10-16T14:23:39;101490.1;;;24.5;43.48535
59987;BME280;46181;51.498;5.392;2022-10-16T14:28:15;101490.9;;;24.46;43.41211
59987;BME280;46181;51.498;5.392;2022-10-16T14:32:33;101495;;;24.49;43.49609
59987;BME280;46181;51.498;5.392;2022-10-16T14:36:57;101477.9;;;24.52;43.4873
59987;BME280;46181;51.498;5.392;2022-10-16T14:41:29;101467.3;;;24.48;43.74023
59987;BME280;46181;51.498;5.392;2022-10-16T14:45:59;101476.7;;;24.5;43.66113
59987;BME280;46181;51.498;5.392;2022-10-16T14:50:27;101482.2;;;24.57;43.85449
59987;BME280;46181;51.498;5.392;2022-10-16T14:55:00;101489.3;;;24.6;43.57715
59987;BME280;46181;51.498;5.392;2022-10-16T14:59:28;101475.3;;;24.6;43.78809
59987;BME280;46181;51.498;5.392;2022-10-16T15:03:57;101458.7;;;24.63;43.53418
59987;BME280;46181;51.498;5.392;2022-10-16T15:08:27;101473.2;;;24.52;43.79102
59987;BME280;46181;51.498;5.392;2022-10-16T15:12:58;101469.3;;;24.37;43.95313
59987;BME280;46181;51.498;5.392;2022-10-16T15:17:27;101468.8;;;24.31;44.07422
59987;BME280;46181;51.498;5.392;2022-10-16T15:21:57;101473.6;;;24.24;44.61523
59987;BME280;46181;51.498;5.392;2022-10-16T15:26:28;101468.4;;;24.07;44.75
59987;BME280;46181;51.498;5.392;2022-10-16T15:30:58;101475.5;;;23.88;44.94141
59987;BME280;46181;51.498;5.392;2022-10-16T15:35:27;101465.3;;;23.74;45.38086
59987;BME280;46181;51.498;5.392;2022-10-16T15:39:58;101468.1;;;23.63;45.68457
59987;BME280;46181;51.498;5.392;2022-10-16T15:44:27;101466.4;;;23.56;45.97949
59987;BME280;46181;51.498;5.392;2022-10-16T15:48:58;101473.2;;;23.45;46.29395
59987;BME280;46181;51.498;5.392;2022-10-16T15:53:27;101484.6;;;23.43;46.8623
59987;BME280;46181;51.498;5.392;2022-10-16T15:57:57;101459.8;;;23.35;46.95801
59987;BME280;46181;51.498;5.392;2022-10-16T16:02:27;101467.1;;;23.26;47.0293
59987;BME280;46181;51.498;5.392;2022-10-16T16:06:57;101468.2;;;23.16;47.37891
59987;BME280;46181;51.498;5.392;2022-10-16T16:11:28;101457.6;;;23.1;47.69824
59987;BME280;46181;51.498;5.392;2022-10-16T16:15:57;101456;;;23.03;47.99316
59987;BME280;46181;51.498;5.392;2022-10-16T16:20:27;101454.8;;;22.95;47.97266
59987;BME280;46181;51.498;5.392;2022-10-16T16:24:57;101457.7;;;22.87;48.5332
59987;BME280;46181;51.498;5.392;2022-10-16T16:29:27;101469.6;;;22.82;48.81836
59987;BME280;46181;51.498;5.392;2022-10-16T16:33:57;101458.6;;;22.76;48.92871
59987;BME280;46181;51.498;5.392;2022-10-16T16:38:27;101455.7;;;22.69;48.83887
59987;BME280;46181;51.498;5.392;2022-10-16T16:42:57;101460.7;;;22.64;49.55273
59987;BME280;46181;51.498;5.392;2022-10-16T16:47:27;101478.9;;;22.63;49.44727
59987;BME280;46181;51.498;5.392;2022-10-16T16:51:57;101478.9;;;22.6;49.68652
59987;BME280;46181;51.498;5.392;2022-10-16T16:56:28;101477.3;;;22.53;49.81934
59987;BME280;46181;51.498;5.392;2022-10-16T17:00:58;101483.6;;;22.49;49.9541
59987;BME280;46181;51.498;5.392;2022-10-16T17:05:27;101491.1;;;22.48;49.96387
59987;BME280;46181;51.498;5.392;2022-10-16T17:09:57;101497.3;;;22.45;50.16992
59987;BME280;46181;51.498;5.392;2022-10-16T17:14:27;101487.1;;;22.42;50.43164
59987;BME280;46181;51.498;5.392;2022-10-16T17:18:58;101478.2;;;22.35;50.54004
59987;BME280;46181;51.498;5.392;2022-10-16T17:23:28;101485.3;;;22.28;50.81055
59987;BME280;46181;51.498;5.392;2022-10-16T17:27:57;101485.3;;;22.21;51.11523
59987;BME280;46181;51.498;5.392;2022-10-16T17:32:27;101478.4;;;22.16;51.27246
59987;BME280;46181;51.498;5.392;2022-10-16T17:36:57;101469.5;;;22.03;51.24512
59987;BME280;46181;51.498;5.392;2022-10-16T17:41:28;101483.5;;;21.98;51.49512
59987;BME280;46181;51.498;5.392;2022-10-16T17:45:57;101488.4;;;21.96;51.71289
59987;BME280;46181;51.498;5.392;2022-10-16T17:50:27;101491.3;;;21.94;51.93066
59987;BME280;46181;51.498;5.392;2022-10-16T17:54:58;101499.4;;;21.93;51.97461
59987;BME280;46181;51.498;5.392;2022-10-16T17:59:27;101503;;;21.94;51.9541
59987;BME280;46181;51.498;5.392;2022-10-16T18:04:01;101502.4;;;21.89;51.99414
59987;BME280;46181;51.498;5.392;2022-10-16T18:08:27;101524.7;;;21.91;52.19238
59987;BME280;46181;51.498;5.392;2022-10-16T18:12:57;101575.3;;;21.94;52.3457
59987;BME280;46181;51.498;5.392;2022-10-16T18:17:27;101602.6;;;21.9;52.96582
59987;BME280;46181;51.498;5.392;2022-10-16T18:21:57;101599.3;;;21.57;54.08203
59987;BME280;46181;51.498;5.392;2022-10-16T18:26:28;101588.7;;;21.3;55.35547
59987;BME280;46181;51.498;5.392;2022-10-16T18:31:03;101569.8;;;21.05;56.20117
59987;BME280;46181;51.498;5.392;2022-10-16T18:35:27;101591.7;;;20.9;56.9209
59987;BME280;46181;51.498;5.392;2022-10-16T18:39:58;101599;;;20.8;57.71387
59987;BME280;46181;51.498;5.392;2022-10-16T18:44:27;101593.9;;;20.78;58.27637
59987;BME280;46181;51.498;5.392;2022-10-16T18:48:57;101578.8;;;20.73;58.52246
59987;BME280;46181;51.498;5.392;2022-10-16T18:53:27;101567.3;;;20.59;58.93066
59987;BME280;46181;51.498;5.392;2022-10-16T18:57:57;101547;;;20.43;59.78516
59987;BME280;46181;51.498;5.392;2022-10-16T19:02:27;101555;;;20.4;60.17285
59987;BME280;46181;51.498;5.392;2022-10-16T19:06:58;101552;;;20.4;60.35742
59987;BME280;46181;51.498;5.392;2022-10-16T19:11:28;101555.7;;;20.36;60.63867
59987;BME280;46181;51.498;5.392;2022-10-16T19:15:57;101545.3;;;20.33;60.80664
59987;BME280;46181;51.498;5.392;2022-10-16T19:20:27;101569.5;;;20.36;60.9375
59987;BME280;46181;51.498;5.392;2022-10-16T19:24:57;101578.7;;;20.39;60.94238
59987;BME280;46181;51.498;5.392;2022-10-16T19:29:27;101564.3;;;20.37;61.07715
59987;BME280;46181;51.498;5.392;2022-10-16T19:34:00;101573.8;;;20.39;61.29883
59987;BME280;46181;51.498;5.392;2022-10-16T19:38:27;101574;;;20.41;61.33496
59987;BME280;46181;51.498;5.392;2022-10-16T19:42:59;101574.4;;;20.46;61.49219
59987;BME280;46181;51.498;5.392;2022-10-16T19:47:27;101582.8;;;20.52;61.32715
59987;BME280;46181;51.498;5.392;2022-10-16T19:51:58;101575.8;;;20.52;61.33984
59987;BME280;46181;51.498;5.392;2022-10-16T19:56:29;101572.7;;;20.51;61.42871
59987;BME280;46181;51.498;5.392;2022-10-16T20:00:57;101581.3;;;20.54;61.31738
59987;BME280;46181;51.498;5.392;2022-10-16T20:05:27;101578.9;;;20.52;61.41992
59987;BME280;46181;51.498;5.392;2022-10-16T20:09:57;101564.2;;;20.47;61.49316
59987;BME280;46181;51.498;5.392;2022-10-16T20:14:27;101561.5;;;20.37;61.6416
59987;BME280;46181;51.498;5.392;2022-10-16T20:18:58;101557.2;;;20.33;61.66895
59987;BME280;46181;51.498;5.392;2022-10-16T20:23:27;101555.1;;;20.25;61.85449
59987;BME280;46181;51.498;5.392;2022-10-16T20:27:57;101561.3;;;20.21;61.97461
59987;BME280;46181;51.498;5.392;2022-10-16T20:32:27;101550.6;;;20.15;62.05859
59987;BME280;46181;51.498;5.392;2022-10-16T20:36:57;101571.3;;;20.07;62.02441
59987;BME280;46181;51.498;5.392;2022-10-16T20:41:28;101562.9;;;20.01;62.15332
59987;BME280;46181;51.498;5.392;2022-10-16T20:46:06;101560.4;;;19.87;62.36328
59987;BME280;46181;51.498;5.392;2022-10-16T20:50:28;101556.4;;;19.86;62.22461
59987;BME280;46181;51.498;5.392;2022-10-16T20:54:57;101558.3;;;19.8;62.34277
59987;BME280;46181;51.498;5.392;2022-10-16T20:59:27;101551.6;;;19.76;62.37109
59987;BME280;46181;51.498;5.392;2022-10-16T21:04:03;101539.2;;;19.65;62.58398
59987;BME280;46181;51.498;5.392;2022-10-16T21:08:27;101529.5;;;19.61;62.61523
59987;BME280;46181;51.498;5.392;2022-10-16T21:13:00;101525.1;;;19.5;62.84082
59987;BME280;46181;51.498;5.392;2022-10-16T21:17:27;101530.7;;;19.45;62.87793
59987;BME280;46181;51.498;5.392;2022-10-16T21:21:59;101535.3;;;19.39;62.97168
59987;BME280;46181;51.498;5.392;2022-10-16T21:26:28;101531.3;;;19.33;63.03418
59987;BME280;46181;51.498;5.392;2022-10-16T21:30:57;101527.6;;;19.29;63.15527
59987;BME280;46181;51.498;5.392;2022-10-16T21:35:29;101523.7;;;19.26;63.21973
59987;BME280;46181;51.498;5.392;2022-10-16T21:39:57;101525.5;;;19.24;63.2627
59987;BME280;46181;51.498;5.392;2022-10-16T21:44:27;101527.8;;;19.21;63.36035
59987;BME280;46181;51.498;5.392;2022-10-16T21:49:00;101530.4;;;19.18;63.40234
59987;BME280;46181;51.498;5.392;2022-10-16T21:53:27;101516.5;;;19.16;63.32031
59987;BME280;46181;51.498;5.392;2022-10-16T21:57:57;101512.4;;;19.1;63.36816
59987;BME280;46181;51.498;5.392;2022-10-16T22:02:27;101509.7;;;19.09;63.35645
59987;BME280;46181;51.498;5.392;2022-10-16T22:06:57;101513.6;;;19.03;63.50781
59987;BME280;46181;51.498;5.392;2022-10-16T22:11:30;101517.2;;;19.01;63.53906
59987;BME280;46181;51.498;5.392;2022-10-16T22:16:01;101511.6;;;18.99;63.65039
59987;BME280;46181;51.498;5.392;2022-10-16T22:20:27;101518.7;;;18.99;63.68457
59987;BME280;46181;51.498;5.392;2022-10-16T22:24:57;101517.8;;;18.96;63.8418
59987;BME280;46181;51.498;5.392;2022-10-16T22:29:27;101516.5;;;18.97;63.95605
59987;BME280;46181;51.498;5.392;2022-10-16T22:34:01;101530.1;;;18.99;64.16602
59987;BME280;46181;51.498;5.392;2022-10-16T22:38:27;101533.1;;;19.15;63.9707
59987;BME280;46181;51.498;5.392;2022-10-16T22:42:57;101531.3;;;19.24;63.60547
59987;BME280;46181;51.498;5.392;2022-10-16T22:47:28;101529.1;;;19.31;63.52344
59987;BME280;46181;51.498;5.392;2022-10-16T22:51:57;101517;;;19.27;63.41504
59987;BME280;46181;51.498;5.392;2022-10-16T22:56:28;101501.2;;;19.17;63.50293
59987;BME280;46181;51.498;5.392;2022-10-16T23:00:57;101504.5;;;19.12;63.62305
59987;BME280;46181;51.498;5.392;2022-10-16T23:05:27;101491.4;;;19.09;63.72363
59987;BME280;46181;51.498;5.392;2022-10-16T23:09:57;101483.3;;;19.03;63.97656
59987;BME280;46181;51.498;5.392;2022-10-16T23:14:31;101491.1;;;18.98;64.01563
59987;BME280;46181;51.498;5.392;2022-10-16T23:18:58;101489.9;;;18.98;63.94629
59987;BME280;46181;51.498;5.392;2022-10-16T23:23:27;101487.1;;;18.94;64.1582
59987;BME280;46181;51.498;5.392;2022-10-16T23:27:58;101477.8;;;18.95;64.29688